Huvudsida
METAR-TAF:

METAR-TAF

Flygplatser :

Kiruna Airport

Kiruna, Sverige

latitud: 67-49N, longitud: 020-20E, höjd: 452 m

Aktuellt väderrapport

Denna rapport gjordes för 37 minuter sedan, klockan 07:20 UTC
Vind 14 kt från nord
Temperatur -3°C
Fuktighet 74%
Tryck 1002 hPa
Sikt 10 km eller mer

METAR: ESNQ 220720Z AUTO 35014KT 9999 FEW028/// SCT036/// BKN051/// M03/M07 Q1002

Tid: 08:57 (07:57 UTC)

Väderprognos

Denna rapport gjordes för 2 timmar och 27 minuter sedan, klockan 05:30 UTC
Prognos gäller från 22 kl. 06 UTC till 22 kl. 15 UTC
Vind 12 kt från nord/nordväst
Sikt 10 km eller mer
Inga moln under 1 500 m eller inga cumulonimbus

TAF: ESNQ 220530Z 2206/2215 33012KT CAVOK

Aktuella väderrapporter och prognoser från 4000 flygplatser (METAR- och TAF-rapporter).

De tillgängliga stationerna syns som gula och röda prickar på kartan.

För musen över prickarna för att se namnen på stationerna.

Klicka sedan för att få väderrapporter och prognoser.

För att ändra kartan: Klicka på de gröna knapparna med ett svart kors på för att zooma in; den gröna knappen med ett streck på för att zooma ut; eller på de gröna pilarna för angränsande kartor.


METAR-TAF: